Home > Products > Valid Products > TAF

000
FTUS44 KLCH 301200 AAA
TAFAEX
TAF AMD
KAEX 301240Z 3013/3112 VRB03KT P6SM SKC
      TEMPO 3013/3014 1SM BR FEW002
     FM301400 07006KT P6SM SKC=



000
FTUS44 KLCH 301100
TAFBPT
TAF
KBPT 301120Z 3012/3112 04007KT P6SM SKC=



000
FTUS44 KLCH 301100
TAFARA
TAF
KARA 301120Z 3012/3112 04007KT P6SM SKC=



000
FTUS44 KLCH 301100
TAFLFT
TAF
KLFT 301120Z 3012/3112 04006KT P6SM SKC=



000
FTUS44 KLCH 301100
TAFAEX
TAF
KAEX 301120Z 3012/3112 VRB03KT P6SM SKC
     FM301400 07006KT P6SM SKC=



000
FTUS44 KLCH 301100
TAFLCH
TAF
KLCH 301120Z 3012/3112 05007KT P6SM SKC=



000
FTUS44 KLCH 300900 AAB
TAFAEX
TAF AMD
KAEX 300957Z 3010/3106 01004KT P6SM SKC
      TEMPO 3010/3013 3SM BR FEW003
     FM301400 07006KT P6SM SKC=



000
FTUS44 KLCH 300800 AAA
TAFAEX
TAF AMD
KAEX 300836Z 3009/3106 01004KT 3SM BR SKC
      TEMPO 3009/3013 1/2SM FG FEW003
     FM301400 07006KT P6SM SKC=



000
FTUS44 KLCH 300500
TAFBPT
TAF
KBPT 300520Z 3006/3106 04007KT P6SM SKC=



000
FTUS44 KLCH 300500
TAFLFT
TAF
KLFT 300520Z 3006/3106 03006KT P6SM SKC=



000
FTUS44 KLCH 300500
TAFARA
TAF
KARA 300520Z 3006/3106 03007KT P6SM SKC=



000
FTUS44 KLCH 300500
TAFLCH
TAF
KLCH 300520Z 3006/3106 04007KT P6SM SKC=



000
FTUS44 KLCH 300500
TAFAEX
TAF
KAEX 300520Z 3006/3106 01004KT P6SM SKC
     FM301400 07006KT P6SM SKC=



000
FTUS44 KLCH 300100 AAA
TAFARA
TAF AMD
KARA 300129Z 3001/3024 03006KT P6SM SKC=



000
FTUS44 KLCH 300100 AAA
TAFARA
TAF AMD
KARA 300129Z 3001/3024 03006KT P6SM SKC=



000
FTUS44 KLCH 300100 AAA
TAFLFT
TAF AMD
KLFT 300128Z 3001/3024 03006KT P6SM SKC=



000
FTUS44 KLCH 300100 AAA
TAFLFT
TAF AMD
KLFT 300128Z 3001/3024 03006KT P6SM SKC=



000
FTUS44 KLCH 292300
TAFARA
TAF
KARA 292320Z 3000/3024 02008KT P6SM BKN015
     FM300300 03006KT P6SM SKC=



000
FTUS44 KLCH 292300
TAFBPT
TAF
KBPT 292320Z 3000/3024 02006KT P6SM SCT029
     FM300100 04006KT P6SM SKC=



000
FTUS44 KLCH 292300
TAFLFT
TAF
KLFT 292320Z 3000/3024 02008KT P6SM BKN015
     FM300200 03006KT P6SM SKC=



000
FTUS44 KLCH 292300
TAFLCH
TAF
KLCH 292320Z 3000/3024 03010KT P6SM BKN015
     FM300100 04006KT P6SM SKC=



000
FTUS44 KLCH 292300
TAFAEX
TAF
KAEX 292320Z 3000/3024 03006KT P6SM SKC
     FM301400 07006KT P6SM SKC=



000
FTUS44 KLCH 292100 AAB
TAFLFT
TAF AMD
KLFT 292137Z 2922/3018 35010KT P6SM SCT025 SCT070
     FM292300 36006KT P6SM SCT007 BKN025 OVC070
     FM300400 02005KT P6SM SCT070
     FM301400 03005KT P6SM SKC=



000
FTUS44 KLCH 292100 AAB
TAFBPT
TAF AMD
KBPT 292135Z 2922/3018 36010KT P6SM SCT029 BKN070
     FM292300 02006KT P6SM BKN029 BKN070
     FM300400 03006KT P6SM SKC=



000
FTUS44 KLCH 292000 AAB
TAFAEX
TAF AMD
KAEX 292017Z 2920/3018 02008KT P6SM OVC035
     FM292100 01008KT P6SM SCT035 SCT060
     FM292300 04003KT P6SM SKC
     FM301400 07005KT P6SM SCT250=



000
FTUS44 KLCH 292000 AAB
TAFAEX
TAF AMD
KAEX 292017Z 2920/3018 02008KT P6SM OVC035
     FM292100 01008KT P6SM SCT035 SCT060
     FM292300 04003KT P6SM SKC
     FM301400 07005KT P6SM SCT250=



000
FTUS44 KLCH 292000 AAA
TAFLFT
TAF AMD
KLFT 292015Z 2920/3018 32007KT P6SM SCT025 BKN070
     FM292300 36006KT P6SM SCT007 BKN025 OVC070
     FM300400 02005KT P6SM SCT070
     FM301400 03005KT P6SM SKC=



000
FTUS44 KLCH 291900 AAA
TAFLCH
TAF AMD
KLCH 291923Z 2919/3018 35008KT P6SM SCT025 BKN035 BKN070
     FM292200 03006KT P6SM BKN025 OVC035
     FM300400 03005KT P6SM SKC
     FM300900 04006KT 4SM BR SKC
     FM301500 06007KT P6SM SCT250=



000
FTUS44 KLCH 291900 AAA
TAFAEX
TAF AMD
KAEX 291915Z 2919/3018 36008KT P6SM SCT012 OVC023
     FM292100 01008KT P6SM SCT035 SCT060
     FM292300 04003KT P6SM SKC
     FM301400 07005KT P6SM SCT250=



000
FTUS44 KLCH 291900 AAA
TAFBPT
TAF AMD
KBPT 291906Z 2919/3018 29005KT P6SM SCT028 BKN070
     FM292300 02006KT P6SM SCT028 BKN070
     FM300400 03006KT P6SM SKC=



000
FTUS44 KLCH 291700
TAFARA
TAF
KARA 291739Z 2918/3018 34007KT P6SM SCT025 BKN070
     FM292100 35006KT P6SM SCT007 BKN035 OVC070
     FM300500 03006KT P6SM SKC=



000
FTUS44 KLCH 291700
TAFBPT
TAF
KBPT 291739Z 2918/3018 30005KT P6SM BKN028 BKN070
     FM292300 02006KT P6SM SCT028 BKN070
     FM300400 03006KT P6SM SKC=



000
FTUS44 KLCH 291700
TAFLCH
TAF
KLCH 291739Z 2918/3018 36007KT P6SM SCT025 BKN070
     FM300400 03005KT P6SM SKC
     FM300900 04006KT 4SM BR SKC
     FM301500 06007KT P6SM SCT250=



000
FTUS44 KLCH 291700
TAFLFT
TAF
KLFT 291739Z 2918/3018 34007KT P6SM SCT025 BKN070
     FM292000 36006KT P6SM SCT007 BKN025 OVC070
     FM300400 02005KT P6SM SCT070
     FM301400 03005KT P6SM SKC=



000
FTUS44 KLCH 291700
TAFAEX
TAF
KAEX 291739Z 2918/3018 36008KT P6SM OVC012
     FM292100 01008KT P6SM SCT035 SCT060
     FM292300 04003KT P6SM SKC
     FM301400 07005KT P6SM SCT250=



000
FTUS44 KLCH 291700 AAC
TAFBPT
TAF AMD
KBPT 291718Z 2917/3012 30005KT P6SM SCT028 SCT070
     FM291800 33005KT P6SM BKN028 BKN070
     FM292300 02006KT P6SM SCT028 BKN070
     FM300400 03006KT P6SM SKC=



000
FTUS44 KLCH 291700 AAC
TAFAEX
TAF AMD
KAEX 291707Z 2917/3012 35008KT P6SM OVC009
     FM291800 36008KT P6SM OVC012
     FM292100 01008KT P6SM SCT035 SCT060
     FM292300 02003KT P6SM SKC=



000
FTUS44 KLCH 291600 AAB
TAFAEX
TAF AMD
KAEX 291615Z 2916/3012 35008KT P6SM OVC005
     FM291800 01008KT P6SM SCT035 SCT060
     FM292300 02003KT P6SM SKC=



000
FTUS44 KLCH 291400 AAA
TAFAEX
TAF AMD
KAEX 291439Z 2915/3012 35006KT 3SM BR VCSH OVC002
     FM291600 35007KT P6SM SCT004 BKN024 BKN060
     FM291800 01008KT P6SM SCT035 SCT060
     FM292300 02003KT P6SM SKC=



000
FTUS44 KLCH 291200 AAB
TAFBPT
TAF AMD
KBPT 291258Z 2913/3012 VRB04KT 2SM BR SCT001 OVC070
      TEMPO 2913/2914 5SM BR FEW005 BKN018
     FM291400 35006KT P6SM SCT025 BKN250=



000
FTUS44 KLCH 291100 AAA
TAFBPT
TAF AMD
KBPT 291157Z 2912/3012 VRB04KT 2SM BR SCT001 OVC070
      TEMPO 2912/2915 5SM BR FEW005 BKN018
     FM291500 35006KT P6SM SCT025 BKN250=



000
FTUS44 KLCH 291100 AAA
TAFLFT
TAF AMD
KLFT 291155Z 2912/3012 00000KT 1/4SM FG VV002
      TEMPO 2912/2914 2SM BR SCT004 BKN014
     FM291400 VRB04KT P6SM VCSH FEW014 BKN020 BKN250
     FM291500 34005KT P6SM VCSH SCT015 SCT030=



000
FTUS44 KLCH 291100
TAFAEX
TAF
KAEX 291121Z 2912/3012 00000KT 1/4SM FG VV002
      TEMPO 2912/2914 1SM BR VV005
     FM291400 36006KT P6SM VCSH SCT024 BKN035=



000
FTUS44 KLCH 291100
TAFLFT
TAF
KLFT 291121Z 2912/3012 00000KT 1/2SM FG VV002
      TEMPO 2912/2914 2SM BR SCT004 BKN014
     FM291400 VRB04KT P6SM VCSH FEW014 BKN020 BKN250
     FM291500 34005KT P6SM VCSH SCT015 SCT030=



000
FTUS44 KLCH 291100
TAFBPT
TAF
KBPT 291121Z 2912/3012 VRB04KT 1/2SM FG SCT002 OVC070
      TEMPO 2912/2915 2SM BR FEW005 BKN018
     FM291500 35006KT P6SM SCT025 BKN250=



000
FTUS44 KLCH 291100
TAFARA
TAF
KARA 291121Z 2912/3012 00000KT 1/4SM FG VV002
      TEMPO 2912/2914 1SM BR SCT002 OVC008
     FM291400 VRB03KT 3SM BR SCT004 BKN014
     FM291500 34005KT P6SM VCSH SCT015 SCT030=



000
FTUS44 KLCH 291100
TAFLCH
TAF
KLCH 291121Z 2912/3012 00000KT 1/4SM FG VV001
      TEMPO 2912/2914 1SM BR BKN002
     FM291400 35006KT P6SM SCT025 BKN250=



000
FTUS44 KLCH 291000 AAC
TAFLFT
TAF AMD
KLFT 291008Z 2910/3006 00000KT 1/4SM FG VV002
      TEMPO 2910/2914 2SM BR BKN004
     FM291400 35006KT P6SM BKN250=



000
FTUS44 KLCH 291000 AAB
TAFBPT
TAF AMD
KBPT 291008Z 2910/3006 VRB04KT 1/4SM FG VV001
      TEMPO 2910/2914 2SM BR BKN004
     FM291500 35006KT P6SM SCT025 BKN250=



000
FTUS44 KLCH 290900 AAB
TAFLCH
TAF AMD
KLCH 290949Z 2910/3006 00000KT 1/4SM FG VV001
      TEMPO 2911/2913 1SM BR BKN002
     FM291400 35006KT P6SM BKN250=



000
FTUS44 KLCH 290900 AAB
TAFLFT
TAF AMD
KLFT 290948Z 2910/3006 00000KT 1/4SM FG VV002
      TEMPO 2912/2914 2SM BR BKN004
     FM291400 35006KT P6SM BKN250=



000
FTUS44 KLCH 290900 AAC
TAFAEX
TAF AMD
KAEX 290905Z 2909/3006 00000KT 1/4SM FG VV002
      TEMPO 2909/2913 1SM BR VV005
     FM291400 36006KT P6SM SCT024 BKN035=



000
FTUS44 KLCH 290700 AAB
TAFAEX
TAF AMD
KAEX 290702Z 2907/3006 00000KT 1SM BR FEW006
      TEMPO 2907/2910 3SM BR SCT005
     FM291000 00000KT 2SM BR SCT009
      TEMPO 2910/2913 1SM BR BKN009
     FM291400 36006KT P6SM BKN035=



000
FTUS44 KLCH 290600 AAA
TAFARA
TAF AMD
KARA 290619Z 2906/3006 00000KT 1/4SM FG VV001
      TEMPO 2906/2910 1SM BR OVC005
     FM291000 00000KT 1/2SM FG BKN004
      TEMPO 2910/2913 1/4SM FG BKN002
     FM291300 35003KT 3SM BR SCT004
     FM291500 34005KT P6SM SCT015=



000
FTUS44 KLCH 290600 AAA
TAFLFT
TAF AMD
KLFT 290618Z 2906/3006 00000KT 3SM BR SKC
      TEMPO 2907/2910 1SM BR VV005
     FM291000 00000KT 4SM BR BKN009
      TEMPO 2910/2913 2SM BR BKN004
     FM291400 35006KT P6SM BKN250=



000
FTUS44 KLCH 290600 AAA
TAFAEX
TAF AMD
KAEX 290617Z 2906/3006 00000KT 4SM BR FEW006 BKN080
     FM290900 00000KT 2SM BR SCT009
      TEMPO 2909/2912 1SM BR BKN009
     FM291400 36006KT P6SM BKN035=



000
FTUS44 KLCH 290600 AAA
TAFBPT
TAF AMD
KBPT 290616Z 2906/3006 VRB04KT 1/4SM FG VV001
      TEMPO 2906/2910 1SM BR OVC005
     FM291000 26002KT 4SM BR BKN009
      TEMPO 2910/2913 2SM BR BKN004
     FM291500 35006KT P6SM BKN250=



000
FTUS44 KLCH 290600 AAA
TAFLCH
TAF AMD
KLCH 290615Z 2906/3006 00000KT 1/2SM FG VV002
      TEMPO 2906/2909 1/4SM FG VV004
     FM290900 00000KT 1SM BR BKN005
      TEMPO 2909/2912 1/2SM FG BKN002
     FM291400 35006KT P6SM BKN250=



000
FTUS44 KLCH 290500
TAFBPT
TAF
KBPT 290520Z 2906/3006 18005KT P6SM SCT009
      TEMPO 2906/2909 4SM BR
     FM290900 26002KT 4SM BR BKN009
      TEMPO 2909/2912 2SM BR BKN004
     FM291500 35006KT P6SM BKN250=



000
FTUS44 KLCH 290500
TAFARA
TAF
KARA 290520Z 2906/3006 00000KT 1SM BR BKN003
      TEMPO 2906/2909 1/2SM FG
     FM290900 00000KT 1/2SM FG BKN004
      TEMPO 2909/2912 1/4SM FG BKN002
     FM291300 35003KT 3SM BR SCT004
     FM291500 34005KT P6SM SCT015=



000
FTUS44 KLCH 290500
TAFAEX
TAF
KAEX 290520Z 2906/3006 00000KT 6SM BR BKN080
     FM290900 00000KT 4SM BR SCT009
      TEMPO 2909/2912 1SM BR BKN009
     FM291400 36006KT P6SM BKN035=



000
FTUS44 KLCH 290500
TAFLFT
TAF
KLFT 290520Z 2906/3006 00000KT P6SM SCT015
     FM290900 00000KT 4SM BR BKN009
      TEMPO 2909/2912 2SM BR BKN004
     FM291400 35006KT P6SM BKN250=



000
FTUS44 KLCH 290500
TAFLCH
TAF
KLCH 290520Z 2906/3006 00000KT 1SM BR SCT009
      TEMPO 2906/2909 1/2SM FG
     FM290900 00000KT 1SM BR BKN005
      TEMPO 2909/2912 1/2SM FG BKN002
     FM291400 35006KT P6SM BKN250=



000
FTUS44 KLCH 290300 AAA
TAFBPT
TAF AMD
KBPT 290317Z 2903/2924 18003KT 2SM BR SCT009
      TEMPO 2908/2912 1SM BR BKN005
     FM291500 35006KT P6SM BKN250=



000
FTUS44 KLCH 282300
TAFARA
TAF
KARA 282320Z 2900/2924 19010KT P6SM VCSH SKC
     FM290600 00000KT 5SM BR BKN015
     FM290900 00000KT 2SM BR BKN005 BKN250
      TEMPO 2909/2912 1/2SM FG BKN002
     FM291400 35006KT P6SM BKN250=



000
FTUS44 KLCH 282300
TAFLCH
TAF
KLCH 282320Z 2900/2924 19006KT P6SM VCSH FEW080
     FM290300 00000KT 5SM BR BKN015
     FM290900 00000KT 2SM BR BKN005
      TEMPO 2909/2913 1/2SM FG BKN002
     FM291400 35006KT P6SM BKN250=



000
FTUS44 KLCH 282300
TAFAEX
TAF
KAEX 282320Z 2900/2924 00000KT P6SM VCSH SCT070
     FM290300 00000KT 5SM BR BKN015
      TEMPO 2909/2912 2SM BR BKN009
     FM291400 36006KT P6SM BKN035=



000
FTUS44 KLCH 282300
TAFLFT
TAF
KLFT 282320Z 2900/2924 20008KT P6SM VCSH SCT070
     FM290600 00000KT 5SM BR BKN015
     FM290900 00000KT 2SM BR BKN005 BKN250
      TEMPO 2909/2912 1/2SM FG BKN002
     FM291400 35006KT P6SM BKN250=



000
FTUS44 KLCH 282300
TAFBPT
TAF
KBPT 282320Z 2900/2924 17007KT P6SM VCSH FEW060
     FM290300 00000KT 5SM BR BKN015
      TEMPO 2909/2913 2SM BR BKN005
     FM291500 35006KT P6SM BKN250=



000
FTUS44 KLCH 281700 RRA
TAFLFT
TAF
KLFT 281741Z 2818/2918 VRB05KT P6SM VCSH SCT040 BKN070
     FM290100 VRB03KT P6SM SCT070 BKN250
     FM290600 00000KT 5SM BR SCT005 BKN250
     FM290900 00000KT 2SM BR SCT005 BKN250
      TEMPO 2909/2913 1/2SM FG
     FM291400 35006KT P6SM BKN250=



000
FTUS44 KLCH 281700 RRA
TAFBPT
TAF
KBPT 281741Z 2818/2918 VRB05KT P6SM VCSH SCT040
     FM290100 VRB03KT P6SM SCT070 BKN250
     FM290600 00000KT 5SM BR SCT005 BKN250
      TEMPO 2909/2913 2SM BR
     FM291600 35006KT P6SM BKN250=



000
FTUS44 KLCH 281700 RRA
TAFAEX
TAF
KAEX 281741Z 2818/2918 VRB05KT P6SM VCSH SCT010 OVC070
     FM290100 00000KT P6SM SCT070 BKN250
     FM290600 00000KT 5SM BR SCT005 BKN250
     FM291600 35006KT P6SM BKN250=



000
FTUS44 KLCH 281700 RRA
TAFARA
TAF
KARA 281741Z 2818/2918 VRB05KT P6SM VCSH SCT040 BKN070
     FM290100 VRB03KT P6SM SCT070 BKN250
     FM290600 00000KT 5SM BR SCT005 BKN250
     FM290900 00000KT 2SM BR SCT005 BKN250
      TEMPO 2909/2913 1/2SM FG
     FM291400 35006KT P6SM BKN250=



000
FTUS44 KLCH 281700 RRA
TAFLCH
TAF
KLCH 281741Z 2818/2918 VRB05KT P6SM VCSH SCT040 OVC070
     FM290100 VRB03KT P6SM SCT070 BKN250
     FM290600 00000KT 5SM BR SCT005 BKN250
     FM290900 00000KT 2SM BR SCT005 BKN250
      TEMPO 2909/2913 1/2SM FG
     FM291400 35006KT P6SM BKN250=



000
FTUS44 KLCH 281200 AAA
TAFARA
TAF AMD
KARA 281249Z 2813/2912 00000KT 3SM BR FEW015
      TEMPO 2813/2814 1/2SM FG BKN015
     FM281400 18006KT P6SM SCT035 BKN050
     FM290600 00000KT 3SM BR FEW005
      TEMPO 2908/2912 1/2SM FG VV002=



000
FTUS44 KLCH 281100
TAFLFT
TAF
KLFT 281120Z 2812/2912 00000KT 3SM BR FEW015
      TEMPO 2812/2814 1SM BR BKN015
     FM281400 18006KT P6SM SCT035 BKN050
     FM290600 00000KT 3SM BR FEW005
      TEMPO 2908/2912 1/2SM FG VV002=



000
FTUS44 KLCH 281100
TAFARA
TAF
KARA 281120Z 2812/2912 00000KT 3SM BR FEW015
      TEMPO 2812/2814 1SM BR BKN015
     FM281400 18006KT P6SM SCT035 BKN050
     FM290600 00000KT 3SM BR FEW005
      TEMPO 2908/2912 1/2SM FG VV002=



000
FTUS44 KLCH 281100
TAFAEX
TAF
KAEX 281120Z 2812/2912 13005KT 3SM BR FEW008
      TEMPO 2812/2814 1SM BR BKN008
     FM281400 16005KT P6SM SCT025 BKN035
     FM290200 00000KT P6SM VCSH SCT025 PROB30 2906/2912 3SM -SHRA
      BKN025=



000
FTUS44 KLCH 281100
TAFBPT
TAF
KBPT 281120Z 2812/2912 19003KT P6SM VCSH BKN035 OVC050
      TEMPO 2812/2814 3SM -SHRA BR BKN025 OVC035
     FM281400 18007KT P6SM SCT035 BKN050
     FM290600 00000KT 3SM BR FEW005
      TEMPO 2908/2912 1/2SM FG VV002=



000
FTUS44 KLCH 281100
TAFLCH
TAF
KLCH 281120Z 2812/2912 00000KT 3SM BR FEW015
      TEMPO 2812/2814 1SM BR BKN015
     FM281400 18006KT P6SM SCT035 BKN050
     FM290600 00000KT 3SM BR FEW005
      TEMPO 2908/2912 1/2SM FG VV002=



000
FTUS44 KLCH 280800 AAA
TAFARA
TAF AMD
KARA 280832Z 2809/2906 00000KT 5SM BR FEW015 BKN060
      TEMPO 2809/2813 2SM BR BKN015
     FM281400 15004KT P6SM SCT050=



000
FTUS44 KLCH 280800 AAA
TAFLFT
TAF AMD
KLFT 280830Z 2809/2906 VRB03KT 5SM BR FEW015 BKN060
      TEMPO 2809/2813 2SM BR BKN015
     FM281400 17005KT P6SM OVC050=



000
FTUS44 KLCH 280800 AAA
TAFLCH
TAF AMD
KLCH 280823Z 2808/2906 11003KT 3SM BR FEW015
      TEMPO 2809/2813 1SM BR BKN015
     FM281300 17006KT P6SM SCT050=



000
FTUS44 KLCH 280800 AAA
TAFBPT
TAF AMD
KBPT 280819Z 2808/2906 17005KT P6SM SCT045 BKN070
      TEMPO 2809/2813 4SM BR
     FM281300 17006KT P6SM SCT050=



000
FTUS44 KLCH 280800 AAA
TAFAEX
TAF AMD
KAEX 280818Z 2808/2906 15004KT 3SM BR SCT015
      TEMPO 2809/2813 1SM BR BKN015
     FM281400 16004KT P6SM SCT025 BKN035=



000
FTUS44 KLCH 280500
TAFLFT
TAF
KLFT 280520Z 2806/2906 00000KT P6SM FEW035
      TEMPO 2806/2809 4SM BR BKN025
     FM280900 00000KT 4SM BR BKN025
     FM281400 17005KT P6SM OVC050=



000
FTUS44 KLCH 280500
TAFAEX
TAF
KAEX 280520Z 2806/2906 15006KT P6SM FEW040
     FM280900 15004KT 5SM BR SCT015
     FM281400 16004KT P6SM BKN025=



000
FTUS44 KLCH 280500
TAFLCH
TAF
KLCH 280520Z 2806/2906 14005KT 4SM BR FEW050
     FM280900 17003KT 3SM BR OVC050
     FM281300 17006KT P6SM SCT050=



000
FTUS44 KLCH 280500
TAFARA
TAF
KARA 280520Z 2806/2906 13006KT P6SM SKC
     FM280900 16003KT 4SM BR OVC050
     FM281400 15004KT P6SM SCT050=



000
FTUS44 KLCH 280500
TAFBPT
TAF
KBPT 280520Z 2806/2906 16007KT P6SM FEW050
     FM280900 17003KT 4SM BR OVC050
     FM281300 17006KT P6SM SCT050=



000
FTUS44 KLCH 272300
TAFARA
TAF
KARA 272320Z 2800/2824 17008KT P6SM SKC
     FM280500 16005KT 4SM BR SKC
     FM281500 17006KT P6SM SKC=



000
FTUS44 KLCH 272300
TAFLFT
TAF
KLFT 272320Z 2800/2824 17008KT P6SM SKC
     FM280800 16003KT 4SM BR SKC
     FM281500 17006KT P6SM SKC=



000
FTUS44 KLCH 272300
TAFAEX
TAF
KAEX 272320Z 2800/2824 20008KT P6SM SCT045
     FM280800 VRB03KT 5SM BR BKN015
     FM281500 17006KT P6SM SKC=



000
FTUS44 KLCH 272300
TAFBPT
TAF
KBPT 272320Z 2800/2824 17009KT P6SM FEW030
     FM280800 16005KT P6SM SCT025
     FM281500 17006KT P6SM SKC=



000
FTUS44 KLCH 272300
TAFLCH
TAF
KLCH 272320Z 2800/2824 18006KT P6SM SKC
     FM280500 VRB03KT 3SM BR SKC
     FM281500 17006KT P6SM SKC=



000
FTUS44 KLCH 271700 RRA
TAFARA
TAF
KARA 271744Z 2718/2818 18011KT P6SM SCT035
     FM280000 17005KT P6SM SKC
     FM280500 VRB03KT 2SM BR SKC
     FM281500 17006KT P6SM SKC=



000
FTUS44 KLCH 271700 RRA
TAFBPT
TAF
KBPT 271744Z 2718/2818 18013G21KT P6SM SCT035
     FM280000 17005KT P6SM SKC
     FM280800 VRB03KT 5SM BR SKC
     FM281500 17006KT P6SM SKC=



000
FTUS44 KLCH 271700 RRA
TAFLCH
TAF
KLCH 271744Z 2718/2818 18010G15KT P6SM SCT035
     FM280000 17005KT P6SM SKC
     FM280500 VRB03KT 3SM BR SKC
     FM281500 17006KT P6SM SKC=



000
FTUS44 KLCH 271700 RRA
TAFLFT
TAF
KLFT 271744Z 2718/2818 18010KT P6SM SCT035
     FM280000 17005KT P6SM SKC
     FM280800 VRB03KT 2SM BR SKC
     FM281500 17006KT P6SM SKC=



000
FTUS44 KLCH 271700 RRA
TAFAEX
TAF
KAEX 271744Z 2718/2818 18010KT P6SM SCT040
     FM280000 17005KT P6SM SKC
     FM280800 VRB03KT 5SM BR SKC
     FM281500 17006KT P6SM SKC=



    US Dept of Commerce
    National Oceanic and Atmospheric Administration
    National Weather Service
    1325 East West Highway
    Silver Spring, MD 20910
    Page Author: NWS Internet Services Team
Disclaimer
Information Quality
Credits
Glossary
Privacy Policy
Freedom of Information Act (FOIA)
About Us
Career Opportunities